sensor_id;sensor_type;location;lat;lon;timestamp;P1;durP1;ratioP1;P2;durP2;ratioP2
7203;SDS011;3643;52.460;13.322;2022-12-08T00:00:27;11.30;;;5.13;;
7203;SDS011;3643;52.460;13.322;2022-12-08T00:02:56;9.30;;;4.50;;
7203;SDS011;3643;52.460;13.322;2022-12-08T00:05:25;9.23;;;5.27;;
7203;SDS011;3643;52.460;13.322;2022-12-08T00:08:12;6.83;;;3.73;;
7203;SDS011;3643;52.460;13.322;2022-12-08T00:10:58;8.07;;;4.90;;
7203;SDS011;3643;52.460;13.322;2022-12-08T00:13:26;9.67;;;4.83;;
7203;SDS011;3643;52.460;13.322;2022-12-08T00:15:58;11.77;;;5.40;;
7203;SDS011;3643;52.460;13.322;2022-12-08T00:18:27;12.57;;;5.90;;
7203;SDS011;3643;52.460;13.322;2022-12-08T00:20:56;8.13;;;5.10;;
7203;SDS011;3643;52.460;13.322;2022-12-08T00:23:26;9.37;;;5.67;;
7203;SDS011;3643;52.460;13.322;2022-12-08T00:25:55;10.97;;;5.47;;
7203;SDS011;3643;52.460;13.322;2022-12-08T00:28:27;12.63;;;5.77;;
7203;SDS011;3643;52.460;13.322;2022-12-08T00:30:56;11.40;;;5.63;;
7203;SDS011;3643;52.460;13.322;2022-12-08T00:33:26;9.23;;;5.60;;
7203;SDS011;3643;52.460;13.322;2022-12-08T00:35:55;13.53;;;6.57;;
7203;SDS011;3643;52.460;13.322;2022-12-08T00:38:23;14.73;;;6.50;;
7203;SDS011;3643;52.460;13.322;2022-12-08T00:40:54;8.73;;;6.10;;
7203;SDS011;3643;52.460;13.322;2022-12-08T00:43:22;8.63;;;5.80;;
7203;SDS011;3643;52.460;13.322;2022-12-08T00:45:52;11.23;;;6.50;;
7203;SDS011;3643;52.460;13.322;2022-12-08T00:48:20;13.53;;;6.67;;
7203;SDS011;3643;52.460;13.322;2022-12-08T00:50:49;14.50;;;6.33;;
7203;SDS011;3643;52.460;13.322;2022-12-08T00:53:17;9.90;;;5.80;;
7203;SDS011;3643;52.460;13.322;2022-12-08T00:55:46;11.40;;;6.00;;
7203;SDS011;3643;52.460;13.322;2022-12-08T00:58:17;10.67;;;5.53;;
7203;SDS011;3643;52.460;13.322;2022-12-08T01:00:45;13.23;;;5.70;;
7203;SDS011;3643;52.460;13.322;2022-12-08T01:03:16;11.10;;;6.37;;
7203;SDS011;3643;52.460;13.322;2022-12-08T01:05:44;15.27;;;6.33;;
7203;SDS011;3643;52.460;13.322;2022-12-08T01:08:13;9.97;;;5.80;;
7203;SDS011;3643;52.460;13.322;2022-12-08T01:10:44;8.93;;;5.57;;
7203;SDS011;3643;52.460;13.322;2022-12-08T01:13:12;12.83;;;5.47;;
7203;SDS011;3643;52.460;13.322;2022-12-08T01:15:42;16.27;;;6.43;;
7203;SDS011;3643;52.460;13.322;2022-12-08T01:18:10;8.70;;;5.20;;
7203;SDS011;3643;52.460;13.322;2022-12-08T01:20:39;8.43;;;5.30;;
7203;SDS011;3643;52.460;13.322;2022-12-08T01:23:07;8.27;;;4.83;;
7203;SDS011;3643;52.460;13.322;2022-12-08T01:25:37;10.60;;;5.23;;
7203;SDS011;3643;52.460;13.322;2022-12-08T01:28:05;9.70;;;6.03;;
7203;SDS011;3643;52.460;13.322;2022-12-08T01:30:34;8.03;;;5.30;;
7203;SDS011;3643;52.460;13.322;2022-12-08T01:33:07;8.63;;;5.90;;
7203;SDS011;3643;52.460;13.322;2022-12-08T01:35:35;13.57;;;6.20;;
7203;SDS011;3643;52.460;13.322;2022-12-08T01:38:05;10.37;;;6.27;;
7203;SDS011;3643;52.460;13.322;2022-12-08T01:40:34;13.87;;;6.87;;
7203;SDS011;3643;52.460;13.322;2022-12-08T01:43:02;10.20;;;6.03;;
7203;SDS011;3643;52.460;13.322;2022-12-08T01:45:32;10.73;;;6.03;;
7203;SDS011;3643;52.460;13.322;2022-12-08T01:48:01;13.80;;;7.13;;
7203;SDS011;3643;52.460;13.322;2022-12-08T01:50:37;14.57;;;6.70;;
7203;SDS011;3643;52.460;13.322;2022-12-08T01:53:08;9.93;;;6.57;;
7203;SDS011;3643;52.460;13.322;2022-12-08T01:55:40;10.53;;;6.70;;
7203;SDS011;3643;52.460;13.322;2022-12-08T01:58:12;12.77;;;6.57;;
7203;SDS011;3643;52.460;13.322;2022-12-08T02:00:45;11.63;;;7.23;;
7203;SDS011;3643;52.460;13.322;2022-12-08T02:03:15;16.77;;;7.87;;
7203;SDS011;3643;52.460;13.322;2022-12-08T02:05:50;13.50;;;6.00;;
7203;SDS011;3643;52.460;13.322;2022-12-08T02:08:21;15.07;;;8.00;;
7203;SDS011;3643;52.460;13.322;2022-12-08T02:10:50;14.37;;;7.17;;
7203;SDS011;3643;52.460;13.322;2022-12-08T02:13:19;17.33;;;7.70;;
7203;SDS011;3643;52.460;13.322;2022-12-08T02:15:52;15.47;;;7.57;;
7203;SDS011;3643;52.460;13.322;2022-12-08T02:18:35;13.20;;;7.30;;
7203;SDS011;3643;52.460;13.322;2022-12-08T02:21:39;12.03;;;6.67;;
7203;SDS011;3643;52.460;13.322;2022-12-08T02:24:16;15.17;;;7.07;;
7203;SDS011;3643;52.460;13.322;2022-12-08T02:30:07;15.07;;;7.70;;
7203;SDS011;3643;52.460;13.322;2022-12-08T02:33:00;15.17;;;7.17;;
7203;SDS011;3643;52.460;13.322;2022-12-08T02:35:57;16.20;;;7.60;;
7203;SDS011;3643;52.460;13.322;2022-12-08T02:38:43;14.13;;;7.80;;
7203;SDS011;3643;52.460;13.322;2022-12-08T02:41:19;16.57;;;7.27;;
7203;SDS011;3643;52.460;13.322;2022-12-08T02:43:59;15.03;;;6.97;;
7203;SDS011;3643;52.460;13.322;2022-12-08T02:46:34;13.03;;;6.90;;
7203;SDS011;3643;52.460;13.322;2022-12-08T02:49:08;15.43;;;7.50;;
7203;SDS011;3643;52.460;13.322;2022-12-08T02:51:43;18.20;;;7.40;;
7203;SDS011;3643;52.460;13.322;2022-12-08T02:54:12;14.73;;;7.13;;
7203;SDS011;3643;52.460;13.322;2022-12-08T02:57:02;15.40;;;7.03;;
7203;SDS011;3643;52.460;13.322;2022-12-08T02:59:56;15.60;;;6.73;;
7203;SDS011;3643;52.460;13.322;2022-12-08T03:02:46;18.00;;;7.80;;
7203;SDS011;3643;52.460;13.322;2022-12-08T03:05:28;13.93;;;6.50;;
7203;SDS011;3643;52.460;13.322;2022-12-08T03:08:06;15.43;;;6.77;;
7203;SDS011;3643;52.460;13.322;2022-12-08T03:10:41;14.77;;;6.87;;
7203;SDS011;3643;52.460;13.322;2022-12-08T03:13:14;12.93;;;6.40;;
7203;SDS011;3643;52.460;13.322;2022-12-08T03:15:48;15.47;;;7.13;;
7203;SDS011;3643;52.460;13.322;2022-12-08T03:18:18;12.63;;;6.70;;
7203;SDS011;3643;52.460;13.322;2022-12-08T03:20:51;12.00;;;5.90;;
7203;SDS011;3643;52.460;13.322;2022-12-08T03:23:21;11.27;;;6.07;;
7203;SDS011;3643;52.460;13.322;2022-12-08T03:25:52;12.07;;;5.57;;
7203;SDS011;3643;52.460;13.322;2022-12-08T03:28:26;15.47;;;6.87;;
7203;SDS011;3643;52.460;13.322;2022-12-08T03:30:57;14.90;;;6.83;;
7203;SDS011;3643;52.460;13.322;2022-12-08T03:33:29;12.97;;;6.43;;
7203;SDS011;3643;52.460;13.322;2022-12-08T03:36:02;15.30;;;6.80;;
7203;SDS011;3643;52.460;13.322;2022-12-08T03:38:39;13.87;;;7.37;;
7203;SDS011;3643;52.460;13.322;2022-12-08T03:41:09;10.77;;;6.70;;
7203;SDS011;3643;52.460;13.322;2022-12-08T03:43:45;10.97;;;5.63;;
7203;SDS011;3643;52.460;13.322;2022-12-08T03:46:15;13.07;;;7.23;;
7203;SDS011;3643;52.460;13.322;2022-12-08T03:48:44;19.13;;;8.43;;
7203;SDS011;3643;52.460;13.322;2022-12-08T03:51:13;19.20;;;8.40;;
7203;SDS011;3643;52.460;13.322;2022-12-08T03:53:44;24.43;;;10.33;;
7203;SDS011;3643;52.460;13.322;2022-12-08T03:56:14;22.70;;;9.47;;
7203;SDS011;3643;52.460;13.322;2022-12-08T03:58:46;24.00;;;10.97;;
7203;SDS011;3643;52.460;13.322;2022-12-08T04:01:21;17.80;;;9.40;;
7203;SDS011;3643;52.460;13.322;2022-12-08T04:03:50;27.00;;;12.13;;
7203;SDS011;3643;52.460;13.322;2022-12-08T04:06:20;28.77;;;11.53;;
7203;SDS011;3643;52.460;13.322;2022-12-08T04:08:50;30.87;;;11.87;;
7203;SDS011;3643;52.460;13.322;2022-12-08T04:11:19;24.73;;;11.07;;
7203;SDS011;3643;52.460;13.322;2022-12-08T04:13:48;26.20;;;11.83;;
7203;SDS011;3643;52.460;13.322;2022-12-08T04:16:17;36.40;;;12.33;;
7203;SDS011;3643;52.460;13.322;2022-12-08T04:18:47;28.93;;;12.60;;
7203;SDS011;3643;52.460;13.322;2022-12-08T04:21:15;26.00;;;12.90;;
7203;SDS011;3643;52.460;13.322;2022-12-08T04:23:44;35.23;;;13.00;;
7203;SDS011;3643;52.460;13.322;2022-12-08T04:26:15;25.90;;;12.00;;
7203;SDS011;3643;52.460;13.322;2022-12-08T04:28:43;24.63;;;11.57;;
7203;SDS011;3643;52.460;13.322;2022-12-08T04:31:13;30.97;;;14.00;;
7203;SDS011;3643;52.460;13.322;2022-12-08T04:33:49;24.20;;;12.53;;
7203;SDS011;3643;52.460;13.322;2022-12-08T04:36:18;23.97;;;12.37;;
7203;SDS011;3643;52.460;13.322;2022-12-08T04:38:47;25.53;;;12.07;;
7203;SDS011;3643;52.460;13.322;2022-12-08T04:41:17;34.00;;;14.40;;
7203;SDS011;3643;52.460;13.322;2022-12-08T04:43:45;35.57;;;14.23;;
7203;SDS011;3643;52.460;13.322;2022-12-08T04:46:14;33.47;;;14.47;;
7203;SDS011;3643;52.460;13.322;2022-12-08T04:48:42;28.57;;;13.37;;
7203;SDS011;3643;52.460;13.322;2022-12-08T04:51:13;29.00;;;12.53;;
7203;SDS011;3643;52.460;13.322;2022-12-08T04:53:42;24.63;;;12.23;;
7203;SDS011;3643;52.460;13.322;2022-12-08T04:56:12;24.37;;;11.70;;
7203;SDS011;3643;52.460;13.322;2022-12-08T04:58:43;42.27;;;16.20;;
7203;SDS011;3643;52.460;13.322;2022-12-08T05:01:12;42.73;;;16.80;;
7203;SDS011;3643;52.460;13.322;2022-12-08T05:03:41;34.53;;;14.77;;
7203;SDS011;3643;52.460;13.322;2022-12-08T05:06:11;42.77;;;16.47;;
7203;SDS011;3643;52.460;13.322;2022-12-08T05:08:40;43.43;;;15.40;;
7203;SDS011;3643;52.460;13.322;2022-12-08T05:11:09;35.43;;;15.13;;
7203;SDS011;3643;52.460;13.322;2022-12-08T05:13:38;31.63;;;13.63;;
7203;SDS011;3643;52.460;13.322;2022-12-08T05:16:10;25.97;;;13.03;;
7203;SDS011;3643;52.460;13.322;2022-12-08T05:18:39;23.40;;;12.00;;
7203;SDS011;3643;52.460;13.322;2022-12-08T05:21:08;26.93;;;12.97;;
7203;SDS011;3643;52.460;13.322;2022-12-08T05:23:36;25.13;;;11.43;;
7203;SDS011;3643;52.460;13.322;2022-12-08T05:26:06;39.43;;;16.10;;
7203;SDS011;3643;52.460;13.322;2022-12-08T05:28:34;51.57;;;17.00;;
7203;SDS011;3643;52.460;13.322;2022-12-08T05:31:09;31.37;;;14.60;;
7203;SDS011;3643;52.460;13.322;2022-12-08T05:33:38;25.80;;;12.17;;
7203;SDS011;3643;52.460;13.322;2022-12-08T05:36:07;25.47;;;12.03;;
7203;SDS011;3643;52.460;13.322;2022-12-08T05:38:35;41.93;;;16.00;;
7203;SDS011;3643;52.460;13.322;2022-12-08T05:41:04;48.30;;;17.43;;
7203;SDS011;3643;52.460;13.322;2022-12-08T05:43:33;51.20;;;17.77;;
7203;SDS011;3643;52.460;13.322;2022-12-08T05:46:01;41.23;;;16.30;;
7203;SDS011;3643;52.460;13.322;2022-12-08T05:48:31;52.97;;;18.90;;
7203;SDS011;3643;52.460;13.322;2022-12-08T05:51:02;53.73;;;17.93;;
7203;SDS011;3643;52.460;13.322;2022-12-08T05:53:30;50.07;;;17.93;;
7203;SDS011;3643;52.460;13.322;2022-12-08T05:55:58;37.70;;;15.07;;
7203;SDS011;3643;52.460;13.322;2022-12-08T05:58:27;32.17;;;13.90;;
7203;SDS011;3643;52.460;13.322;2022-12-08T06:00:55;30.97;;;14.27;;
7203;SDS011;3643;52.460;13.322;2022-12-08T06:03:23;30.20;;;14.17;;
7203;SDS011;3643;52.460;13.322;2022-12-08T06:05:53;52.93;;;16.67;;
7203;SDS011;3643;52.460;13.322;2022-12-08T06:08:21;44.07;;;17.27;;
7203;SDS011;3643;52.460;13.322;2022-12-08T06:10:50;50.67;;;17.23;;
7203;SDS011;3643;52.460;13.322;2022-12-08T06:13:18;43.20;;;17.50;;
7203;SDS011;3643;52.460;13.322;2022-12-08T06:15:46;46.27;;;17.27;;
7203;SDS011;3643;52.460;13.322;2022-12-08T06:18:14;59.97;;;18.17;;
7203;SDS011;3643;52.460;13.322;2022-12-08T06:20:43;52.30;;;17.30;;
7203;SDS011;3643;52.460;13.322;2022-12-08T06:23:13;55.40;;;16.77;;
7203;SDS011;3643;52.460;13.322;2022-12-08T06:25:41;57.53;;;18.93;;
7203;SDS011;3643;52.460;13.322;2022-12-08T06:28:09;71.60;;;19.00;;
7203;SDS011;3643;52.460;13.322;2022-12-08T06:30:37;37.47;;;16.07;;
7203;SDS011;3643;52.460;13.322;2022-12-08T06:33:06;46.03;;;16.57;;
7203;SDS011;3643;52.460;13.322;2022-12-08T06:35:34;52.37;;;17.73;;
7203;SDS011;3643;52.460;13.322;2022-12-08T06:38:03;38.30;;;16.37;;
7203;SDS011;3643;52.460;13.322;2022-12-08T06:40:32;39.73;;;15.13;;
7203;SDS011;3643;52.460;13.322;2022-12-08T06:43:03;37.70;;;16.43;;
7203;SDS011;3643;52.460;13.322;2022-12-08T06:45:31;37.40;;;15.33;;
7203;SDS011;3643;52.460;13.322;2022-12-08T06:48:00;39.20;;;16.30;;
7203;SDS011;3643;52.460;13.322;2022-12-08T06:50:29;35.93;;;14.77;;
7203;SDS011;3643;52.460;13.322;2022-12-08T06:52:58;37.50;;;15.57;;
7203;SDS011;3643;52.460;13.322;2022-12-08T06:55:32;46.47;;;18.00;;
7203;SDS011;3643;52.460;13.322;2022-12-08T06:58:21;36.37;;;14.60;;
7203;SDS011;3643;52.460;13.322;2022-12-08T07:00:50;45.70;;;16.40;;
7203;SDS011;3643;52.460;13.322;2022-12-08T07:03:19;34.27;;;13.83;;
7203;SDS011;3643;52.460;13.322;2022-12-08T07:05:47;28.40;;;12.83;;
7203;SDS011;3643;52.460;13.322;2022-12-08T07:08:16;44.63;;;17.53;;
7203;SDS011;3643;52.460;13.322;2022-12-08T07:10:45;47.70;;;18.70;;
7203;SDS011;3643;52.460;13.322;2022-12-08T07:13:14;44.30;;;17.43;;
7203;SDS011;3643;52.460;13.322;2022-12-08T07:15:42;30.73;;;13.37;;
7203;SDS011;3643;52.460;13.322;2022-12-08T07:18:10;44.07;;;15.93;;
7203;SDS011;3643;52.460;13.322;2022-12-08T07:20:40;49.70;;;18.10;;
7203;SDS011;3643;52.460;13.322;2022-12-08T07:23:17;41.83;;;16.83;;
7203;SDS011;3643;52.460;13.322;2022-12-08T07:25:47;57.00;;;18.27;;
7203;SDS011;3643;52.460;13.322;2022-12-08T07:28:16;62.30;;;18.13;;
7203;SDS011;3643;52.460;13.322;2022-12-08T07:30:44;59.77;;;18.93;;
7203;SDS011;3643;52.460;13.322;2022-12-08T07:33:12;58.93;;;20.40;;
7203;SDS011;3643;52.460;13.322;2022-12-08T07:35:41;54.43;;;18.83;;
7203;SDS011;3643;52.460;13.322;2022-12-08T07:38:14;79.87;;;18.63;;
7203;SDS011;3643;52.460;13.322;2022-12-08T07:40:42;57.97;;;19.73;;
7203;SDS011;3643;52.460;13.322;2022-12-08T07:43:12;71.70;;;19.63;;
7203;SDS011;3643;52.460;13.322;2022-12-08T07:45:40;44.70;;;15.60;;
7203;SDS011;3643;52.460;13.322;2022-12-08T07:48:08;55.37;;;19.33;;
7203;SDS011;3643;52.460;13.322;2022-12-08T07:50:37;55.33;;;18.63;;
7203;SDS011;3643;52.460;13.322;2022-12-08T07:53:05;63.40;;;19.33;;
7203;SDS011;3643;52.460;13.322;2022-12-08T07:55:37;68.73;;;19.20;;
7203;SDS011;3643;52.460;13.322;2022-12-08T07:58:06;57.87;;;18.43;;
7203;SDS011;3643;52.460;13.322;2022-12-08T08:00:36;34.17;;;15.27;;
7203;SDS011;3643;52.460;13.322;2022-12-08T08:03:05;58.03;;;19.00;;
7203;SDS011;3643;52.460;13.322;2022-12-08T08:05:34;41.70;;;16.67;;
7203;SDS011;3643;52.460;13.322;2022-12-08T08:08:02;50.23;;;18.87;;
7203;SDS011;3643;52.460;13.322;2022-12-08T08:10:31;43.10;;;16.53;;
7203;SDS011;3643;52.460;13.322;2022-12-08T08:13:00;77.00;;;20.10;;
7203;SDS011;3643;52.460;13.322;2022-12-08T08:18:11;51.17;;;17.77;;
7203;SDS011;3643;52.460;13.322;2022-12-08T08:20:39;33.33;;;14.17;;
7203;SDS011;3643;52.460;13.322;2022-12-08T08:23:08;50.53;;;18.27;;
7203;SDS011;3643;52.460;13.322;2022-12-08T08:25:36;39.63;;;17.13;;
7203;SDS011;3643;52.460;13.322;2022-12-08T08:28:04;59.83;;;19.00;;
7203;SDS011;3643;52.460;13.322;2022-12-08T08:30:32;56.93;;;19.30;;
7203;SDS011;3643;52.460;13.322;2022-12-08T08:33:01;60.87;;;17.53;;
7203;SDS011;3643;52.460;13.322;2022-12-08T08:35:31;52.00;;;16.17;;
7203;SDS011;3643;52.460;13.322;2022-12-08T08:38:00;37.13;;;16.37;;
7203;SDS011;3643;52.460;13.322;2022-12-08T08:40:28;63.47;;;18.87;;
7203;SDS011;3643;52.460;13.322;2022-12-08T08:43:04;65.60;;;18.10;;
7203;SDS011;3643;52.460;13.322;2022-12-08T08:45:35;67.80;;;19.63;;
7203;SDS011;3643;52.460;13.322;2022-12-08T08:48:06;36.17;;;15.53;;
7203;SDS011;3643;52.460;13.322;2022-12-08T08:50:35;34.43;;;14.97;;
7203;SDS011;3643;52.460;13.322;2022-12-08T08:53:03;70.97;;;19.53;;
7203;SDS011;3643;52.460;13.322;2022-12-08T08:55:32;63.80;;;19.07;;
7203;SDS011;3643;52.460;13.322;2022-12-08T08:58:00;61.90;;;18.13;;
7203;SDS011;3643;52.460;13.322;2022-12-08T09:00:28;63.00;;;18.57;;
7203;SDS011;3643;52.460;13.322;2022-12-08T09:02:57;59.20;;;17.80;;
7203;SDS011;3643;52.460;13.322;2022-12-08T09:05:25;64.27;;;19.10;;
7203;SDS011;3643;52.460;13.322;2022-12-08T09:07:55;41.53;;;16.13;;
7203;SDS011;3643;52.460;13.322;2022-12-08T09:10:24;62.37;;;18.77;;
7203;SDS011;3643;52.460;13.322;2022-12-08T09:12:52;43.23;;;17.47;;
7203;SDS011;3643;52.460;13.322;2022-12-08T09:15:20;42.53;;;17.80;;
7203;SDS011;3643;52.460;13.322;2022-12-08T09:17:49;52.13;;;18.27;;
7203;SDS011;3643;52.460;13.322;2022-12-08T09:20:18;44.70;;;17.43;;
7203;SDS011;3643;52.460;13.322;2022-12-08T09:22:46;37.23;;;16.43;;
7203;SDS011;3643;52.460;13.322;2022-12-08T09:25:16;42.13;;;17.43;;
7203;SDS011;3643;52.460;13.322;2022-12-08T09:27:44;44.97;;;19.03;;
7203;SDS011;3643;52.460;13.322;2022-12-08T09:30:13;37.77;;;16.57;;
7203;SDS011;3643;52.460;13.322;2022-12-08T09:32:41;30.40;;;14.00;;
7203;SDS011;3643;52.460;13.322;2022-12-08T09:35:09;37.43;;;16.27;;
7203;SDS011;3643;52.460;13.322;2022-12-08T09:37:39;41.93;;;19.00;;
7203;SDS011;3643;52.460;13.322;2022-12-08T09:40:09;32.83;;;16.30;;
7203;SDS011;3643;52.460;13.322;2022-12-08T09:42:46;36.00;;;17.20;;
7203;SDS011;3643;52.460;13.322;2022-12-08T09:45:19;43.17;;;18.20;;
7203;SDS011;3643;52.460;13.322;2022-12-08T09:47:52;50.67;;;18.27;;
7203;SDS011;3643;52.460;13.322;2022-12-08T09:50:28;47.00;;;17.40;;
7203;SDS011;3643;52.460;13.322;2022-12-08T09:53:02;40.63;;;18.20;;
7203;SDS011;3643;52.460;13.322;2022-12-08T09:55:39;43.10;;;18.87;;
7203;SDS011;3643;52.460;13.322;2022-12-08T09:58:14;50.57;;;18.13;;
7203;SDS011;3643;52.460;13.322;2022-12-08T10:00:47;44.30;;;18.93;;
7203;SDS011;3643;52.460;13.322;2022-12-08T10:03:17;29.57;;;15.13;;
7203;SDS011;3643;52.460;13.322;2022-12-08T10:05:46;31.07;;;15.63;;
7203;SDS011;3643;52.460;13.322;2022-12-08T10:08:24;30.90;;;16.13;;
7203;SDS011;3643;52.460;13.322;2022-12-08T10:11:03;34.07;;;15.60;;
7203;SDS011;3643;52.460;13.322;2022-12-08T10:13:39;40.20;;;16.57;;
7203;SDS011;3643;52.460;13.322;2022-12-08T10:16:14;28.87;;;14.80;;
7203;SDS011;3643;52.460;13.322;2022-12-08T10:18:56;22.73;;;13.13;;
7203;SDS011;3643;52.460;13.322;2022-12-08T10:21:30;22.50;;;12.07;;
7203;SDS011;3643;52.460;13.322;2022-12-08T10:24:00;28.20;;;14.17;;
7203;SDS011;3643;52.460;13.322;2022-12-08T10:26:33;43.23;;;16.97;;
7203;SDS011;3643;52.460;13.322;2022-12-08T10:29:02;29.23;;;15.13;;
7203;SDS011;3643;52.460;13.322;2022-12-08T10:31:34;31.53;;;15.10;;
7203;SDS011;3643;52.460;13.322;2022-12-08T10:34:09;26.97;;;13.37;;
7203;SDS011;3643;52.460;13.322;2022-12-08T10:36:49;32.83;;;15.67;;
7203;SDS011;3643;52.460;13.322;2022-12-08T10:39:32;26.57;;;13.03;;
7203;SDS011;3643;52.460;13.322;2022-12-08T10:42:06;36.47;;;15.63;;
7203;SDS011;3643;52.460;13.322;2022-12-08T10:44:48;26.90;;;14.03;;
7203;SDS011;3643;52.460;13.322;2022-12-08T10:47:22;36.23;;;15.50;;
7203;SDS011;3643;52.460;13.322;2022-12-08T10:52:48;32.83;;;14.60;;
7203;SDS011;3643;52.460;13.322;2022-12-08T10:55:21;25.50;;;12.50;;
7203;SDS011;3643;52.460;13.322;2022-12-08T10:57:50;28.60;;;13.43;;
7203;SDS011;3643;52.460;13.322;2022-12-08T11:00:22;24.37;;;11.00;;
7203;SDS011;3643;52.460;13.322;2022-12-08T11:02:54;31.73;;;14.10;;
7203;SDS011;3643;52.460;13.322;2022-12-08T11:05:26;28.47;;;12.43;;
7203;SDS011;3643;52.460;13.322;2022-12-08T11:07:58;28.57;;;12.30;;
7203;SDS011;3643;52.460;13.322;2022-12-08T11:10:31;26.73;;;13.43;;
7203;SDS011;3643;52.460;13.322;2022-12-08T11:13:02;29.97;;;13.87;;
7203;SDS011;3643;52.460;13.322;2022-12-08T11:15:36;23.70;;;12.47;;
7203;SDS011;3643;52.460;13.322;2022-12-08T11:18:08;35.47;;;14.00;;
7203;SDS011;3643;52.460;13.322;2022-12-08T11:20:54;30.73;;;13.27;;
7203;SDS011;3643;52.460;13.322;2022-12-08T11:23:25;32.20;;;12.83;;
7203;SDS011;3643;52.460;13.322;2022-12-08T11:25:55;35.13;;;13.53;;
7203;SDS011;3643;52.460;13.322;2022-12-08T11:28:29;32.57;;;13.13;;
7203;SDS011;3643;52.460;13.322;2022-12-08T11:31:01;22.80;;;12.30;;
7203;SDS011;3643;52.460;13.322;2022-12-08T11:33:33;45.03;;;22.73;;
7203;SDS011;3643;52.460;13.322;2022-12-08T11:36:03;55.37;;;28.77;;
7203;SDS011;3643;52.460;13.322;2022-12-08T11:39:08;38.50;;;14.13;;
7203;SDS011;3643;52.460;13.322;2022-12-08T11:41:39;29.03;;;13.47;;
7203;SDS011;3643;52.460;13.322;2022-12-08T11:44:15;22.63;;;12.17;;
7203;SDS011;3643;52.460;13.322;2022-12-08T11:46:55;22.97;;;11.97;;
7203;SDS011;3643;52.460;13.322;2022-12-08T11:49:32;30.87;;;14.47;;
7203;SDS011;3643;52.460;13.322;2022-12-08T11:52:04;42.27;;;15.23;;
7203;SDS011;3643;52.460;13.322;2022-12-08T11:54:40;25.73;;;13.20;;
7203;SDS011;3643;52.460;13.322;2022-12-08T11:57:13;28.83;;;13.37;;
7203;SDS011;3643;52.460;13.322;2022-12-08T11:59:47;28.37;;;13.37;;
7203;SDS011;3643;52.460;13.322;2022-12-08T12:02:18;32.67;;;14.40;;
7203;SDS011;3643;52.460;13.322;2022-12-08T12:04:49;24.27;;;13.83;;
7203;SDS011;3643;52.460;13.322;2022-12-08T12:07:26;31.80;;;13.33;;
7203;SDS011;3643;52.460;13.322;2022-12-08T12:10:18;28.03;;;12.33;;
7203;SDS011;3643;52.460;13.322;2022-12-08T12:12:56;32.83;;;13.00;;
7203;SDS011;3643;52.460;13.322;2022-12-08T12:18:34;29.13;;;12.60;;
7203;SDS011;3643;52.460;13.322;2022-12-08T12:21:12;27.83;;;12.90;;
7203;SDS011;3643;52.460;13.322;2022-12-08T12:23:45;39.03;;;14.23;;
7203;SDS011;3643;52.460;13.322;2022-12-08T12:26:20;28.50;;;13.77;;
7203;SDS011;3643;52.460;13.322;2022-12-08T12:28:51;26.03;;;11.87;;
7203;SDS011;3643;52.460;13.322;2022-12-08T12:31:23;30.10;;;13.57;;
7203;SDS011;3643;52.460;13.322;2022-12-08T12:34:02;28.97;;;13.43;;
7203;SDS011;3643;52.460;13.322;2022-12-08T12:36:43;29.40;;;13.97;;
7203;SDS011;3643;52.460;13.322;2022-12-08T12:39:17;42.93;;;18.93;;
7203;SDS011;3643;52.460;13.322;2022-12-08T12:41:49;32.37;;;14.73;;
7203;SDS011;3643;52.460;13.322;2022-12-08T12:44:24;37.13;;;14.73;;
7203;SDS011;3643;52.460;13.322;2022-12-08T12:47:05;30.67;;;14.13;;
7203;SDS011;3643;52.460;13.322;2022-12-08T12:49:49;34.50;;;14.30;;
7203;SDS011;3643;52.460;13.322;2022-12-08T12:58:32;28.47;;;13.67;;
7203;SDS011;3643;52.460;13.322;2022-12-08T13:04:04;22.17;;;11.37;;
7203;SDS011;3643;52.460;13.322;2022-12-08T13:06:36;36.50;;;16.13;;
7203;SDS011;3643;52.460;13.322;2022-12-08T13:09:18;31.70;;;13.77;;
7203;SDS011;3643;52.460;13.322;2022-12-08T13:11:49;29.63;;;14.90;;
7203;SDS011;3643;52.460;13.322;2022-12-08T13:14:26;30.40;;;14.50;;
7203;SDS011;3643;52.460;13.322;2022-12-08T13:17:04;32.83;;;14.87;;
7203;SDS011;3643;52.460;13.322;2022-12-08T13:19:37;37.87;;;15.13;;
7203;SDS011;3643;52.460;13.322;2022-12-08T13:28:21;31.13;;;15.73;;
7203;SDS011;3643;52.460;13.322;2022-12-08T13:30:54;26.53;;;12.83;;
7203;SDS011;3643;52.460;13.322;2022-12-08T13:33:25;42.70;;;15.97;;
7203;SDS011;3643;52.460;13.322;2022-12-08T13:38:50;30.33;;;15.53;;
7203;SDS011;3643;52.460;13.322;2022-12-08T13:41:25;25.63;;;13.10;;
7203;SDS011;3643;52.460;13.322;2022-12-08T13:44:00;38.77;;;16.77;;
7203;SDS011;3643;52.460;13.322;2022-12-08T13:46:52;40.47;;;16.70;;
7203;SDS011;3643;52.460;13.322;2022-12-08T13:49:48;31.33;;;15.43;;
7203;SDS011;3643;52.460;13.322;2022-12-08T13:52:42;44.53;;;17.50;;
7203;SDS011;3643;52.460;13.322;2022-12-08T13:55:33;47.17;;;17.07;;
7203;SDS011;3643;52.460;13.322;2022-12-08T13:58:27;42.23;;;17.53;;
7203;SDS011;3643;52.460;13.322;2022-12-08T14:01:01;34.30;;;15.83;;
7203;SDS011;3643;52.460;13.322;2022-12-08T14:03:36;39.23;;;17.50;;
7203;SDS011;3643;52.460;13.322;2022-12-08T14:06:35;35.63;;;15.97;;
7203;SDS011;3643;52.460;13.322;2022-12-08T14:09:06;39.50;;;16.27;;
7203;SDS011;3643;52.460;13.322;2022-12-08T14:11:38;41.17;;;16.03;;
7203;SDS011;3643;52.460;13.322;2022-12-08T14:14:18;30.23;;;14.80;;
7203;SDS011;3643;52.460;13.322;2022-12-08T14:17:09;30.23;;;13.93;;
7203;SDS011;3643;52.460;13.322;2022-12-08T14:19:41;28.10;;;12.63;;
7203;SDS011;3643;52.460;13.322;2022-12-08T14:22:14;34.37;;;14.93;;
7203;SDS011;3643;52.460;13.322;2022-12-08T14:24:44;41.67;;;16.90;;
7203;SDS011;3643;52.460;13.322;2022-12-08T14:27:14;31.57;;;13.97;;
7203;SDS011;3643;52.460;13.322;2022-12-08T14:29:47;30.83;;;14.27;;
7203;SDS011;3643;52.460;13.322;2022-12-08T14:32:22;31.53;;;15.03;;
7203;SDS011;3643;52.460;13.322;2022-12-08T14:34:56;31.97;;;14.97;;
7203;SDS011;3643;52.460;13.322;2022-12-08T14:37:38;33.10;;;14.47;;
7203;SDS011;3643;52.460;13.322;2022-12-08T14:40:12;26.90;;;12.57;;
7203;SDS011;3643;52.460;13.322;2022-12-08T14:42:49;32.10;;;12.83;;
7203;SDS011;3643;52.460;13.322;2022-12-08T14:45:21;29.07;;;11.77;;
7203;SDS011;3643;52.460;13.322;2022-12-08T14:47:49;21.37;;;10.50;;
7203;SDS011;3643;52.460;13.322;2022-12-08T14:50:37;25.93;;;12.00;;
7203;SDS011;3643;52.460;13.322;2022-12-08T14:53:11;24.30;;;11.37;;
7203;SDS011;3643;52.460;13.322;2022-12-08T14:55:42;24.03;;;11.77;;
7203;SDS011;3643;52.460;13.322;2022-12-08T14:58:16;26.53;;;11.70;;
7203;SDS011;3643;52.460;13.322;2022-12-08T15:00:48;23.50;;;11.10;;
7203;SDS011;3643;52.460;13.322;2022-12-08T15:03:20;23.00;;;11.47;;
7203;SDS011;3643;52.460;13.322;2022-12-08T15:05:50;31.07;;;12.33;;
7203;SDS011;3643;52.460;13.322;2022-12-08T15:08:20;31.60;;;12.77;;
7203;SDS011;3643;52.460;13.322;2022-12-08T15:16:26;24.43;;;11.63;;
7203;SDS011;3643;52.460;13.322;2022-12-08T15:19:00;24.90;;;12.57;;
7203;SDS011;3643;52.460;13.322;2022-12-08T15:21:32;22.20;;;11.20;;
7203;SDS011;3643;52.460;13.322;2022-12-08T15:24:04;32.27;;;13.67;;
7203;SDS011;3643;52.460;13.322;2022-12-08T15:26:37;24.13;;;11.00;;
7203;SDS011;3643;52.460;13.322;2022-12-08T15:29:12;28.87;;;12.23;;
7203;SDS011;3643;52.460;13.322;2022-12-08T15:31:46;28.73;;;13.00;;
7203;SDS011;3643;52.460;13.322;2022-12-08T15:34:15;29.30;;;12.90;;
7203;SDS011;3643;52.460;13.322;2022-12-08T15:36:44;20.00;;;10.17;;
7203;SDS011;3643;52.460;13.322;2022-12-08T15:39:17;26.60;;;12.33;;
7203;SDS011;3643;52.460;13.322;2022-12-08T15:41:58;23.43;;;12.47;;
7203;SDS011;3643;52.460;13.322;2022-12-08T15:44:27;37.50;;;13.20;;